createdAt,value
2019-02-27T00:01:55.264Z,7.50
2019-02-27T00:03:56.968Z,7.40
2019-02-27T00:05:58.669Z,7.40
2019-02-27T00:08:00.381Z,7.50
2019-02-27T00:10:21.842Z,7.50
2019-02-27T00:12:23.541Z,7.70
2019-02-27T00:14:25.286Z,7.80
2019-02-27T00:16:27.085Z,7.90
2019-02-27T00:18:28.804Z,8.00
2019-02-27T00:20:30.509Z,8.00
2019-02-27T00:22:32.218Z,7.90
2019-02-27T00:24:33.919Z,7.90
2019-02-27T00:26:35.645Z,7.80
2019-02-27T00:28:37.356Z,7.80
2019-02-27T00:30:39.061Z,7.80
2019-02-27T00:32:40.809Z,7.80
2019-02-27T00:34:42.533Z,7.90
2019-02-27T00:36:45.180Z,7.90
2019-02-27T00:38:47.544Z,7.80
2019-02-27T00:40:49.361Z,7.80
2019-02-27T00:42:54.042Z,7.80
2019-02-27T00:44:54.701Z,7.70
2019-02-27T00:46:56.405Z,7.50
2019-02-27T00:48:59.313Z,7.50
2019-02-27T00:51:01.709Z,7.20
2019-02-27T00:53:03.575Z,7.00
2019-02-27T00:55:05.364Z,7.00
2019-02-27T00:57:07.204Z,6.90
2019-02-27T00:59:08.902Z,6.80
2019-02-27T01:01:12.778Z,6.80
2019-02-27T01:03:14.444Z,6.70
2019-02-27T01:05:16.242Z,6.60
2019-02-27T01:07:20.843Z,6.50
2019-02-27T01:09:22.049Z,6.40
2019-02-27T01:11:23.840Z,6.40
2019-02-27T01:13:25.533Z,6.30
2019-02-27T01:15:27.458Z,6.20
2019-02-27T01:17:29.153Z,6.30
2019-02-27T01:19:30.853Z,6.40
2019-02-27T01:21:32.685Z,6.40
2019-02-27T01:23:34.386Z,6.40
2019-02-27T01:25:36.104Z,6.40
2019-02-27T01:27:38.646Z,6.30
2019-02-27T01:29:40.652Z,6.30
2019-02-27T01:31:42.350Z,6.20
2019-02-27T01:33:44.094Z,6.30
2019-02-27T01:35:45.794Z,6.30
2019-02-27T01:37:47.589Z,6.40
2019-02-27T01:39:49.342Z,6.40
2019-02-27T01:41:51.040Z,6.50
2019-02-27T01:43:52.720Z,6.50
2019-02-27T01:45:55.033Z,6.40
2019-02-27T01:47:56.944Z,6.40
2019-02-27T01:49:58.666Z,6.50
2019-02-27T01:52:02.082Z,6.50
2019-02-27T01:54:03.957Z,6.50
2019-02-27T01:56:05.667Z,6.50
2019-02-27T01:58:09.548Z,6.50
2019-02-27T02:00:11.185Z,6.60
2019-02-27T02:02:12.936Z,6.60
2019-02-27T02:04:14.682Z,6.60
2019-02-27T02:06:16.477Z,6.50
2019-02-27T02:08:18.181Z,6.60
2019-02-27T02:10:19.994Z,6.50
2019-02-27T02:12:25.347Z,6.50
2019-02-27T02:14:41.342Z,6.50
2019-02-27T02:16:59.701Z,6.50
2019-02-27T02:19:19.002Z,6.50
2019-02-27T02:21:50.376Z,6.50
2019-02-27T02:24:20.949Z,6.40
2019-02-27T02:26:38.349Z,6.40
2019-02-27T02:29:11.965Z,6.40
2019-02-27T02:31:47.696Z,6.40
2019-02-27T02:34:21.421Z,6.30
2019-02-27T02:36:34.825Z,6.30
2019-02-27T02:38:51.218Z,6.30
2019-02-27T02:41:47.893Z,6.30
2019-02-27T02:44:21.061Z,6.30
2019-02-27T02:46:55.799Z,6.20
2019-02-27T02:49:29.566Z,6.20
2019-02-27T02:51:42.077Z,6.20
2019-02-27T02:54:06.855Z,6.10
2019-02-27T02:56:27.904Z,6.20
2019-02-27T02:58:52.540Z,6.20
2019-02-27T03:01:54.542Z,6.20
2019-02-27T03:04:30.194Z,6.20
2019-02-27T03:06:42.679Z,6.20
2019-02-27T03:09:19.244Z,6.20
2019-02-27T03:11:40.478Z,6.20
2019-02-27T03:14:25.895Z,6.10
2019-02-27T03:16:42.360Z,6.10
2019-02-27T03:19:20.088Z,6.20
2019-02-27T03:21:50.503Z,6.10
2019-02-27T03:24:34.738Z,6.10
2019-02-27T03:26:53.269Z,6.10
2019-02-27T03:29:29.242Z,6.20
2019-02-27T03:32:02.872Z,6.10
2019-02-27T03:34:33.031Z,6.00
2019-02-27T03:37:00.914Z,6.10
2019-02-27T03:39:48.501Z,6.20
2019-02-27T03:42:14.293Z,6.20
2019-02-27T03:44:28.630Z,6.30
2019-02-27T03:46:57.815Z,6.30
2019-02-27T03:49:24.852Z,6.40
2019-02-27T03:52:04.981Z,6.40
2019-02-27T03:54:31.844Z,6.20
2019-02-27T03:56:45.995Z,6.20
2019-02-27T03:59:29.177Z,6.30
2019-02-27T04:01:49.013Z,6.40
2019-02-27T04:04:17.515Z,6.50
2019-02-27T04:06:26.508Z,6.50
2019-02-27T04:08:54.785Z,6.60
2019-02-27T04:10:56.456Z,6.50
2019-02-27T04:12:58.162Z,6.50
2019-02-27T04:15:00.008Z,6.40
2019-02-27T04:17:05.496Z,6.40
2019-02-27T04:19:05.880Z,6.50
2019-02-27T04:21:07.676Z,6.60
2019-02-27T04:23:12.465Z,6.60
2019-02-27T04:25:12.984Z,6.60
2019-02-27T04:27:20.101Z,6.60
2019-02-27T04:29:18.297Z,6.60
2019-02-27T04:31:19.994Z,6.60
2019-02-27T04:33:23.240Z,6.60
2019-02-27T04:35:25.441Z,6.50
2019-02-27T04:37:27.151Z,6.50
2019-02-27T04:39:28.853Z,6.50
2019-02-27T04:41:30.566Z,6.50
2019-02-27T04:43:32.791Z,6.60
2019-02-27T04:45:34.550Z,6.60
2019-02-27T04:47:36.255Z,6.50
2019-02-27T04:49:38.433Z,6.50
2019-02-27T04:51:40.378Z,6.40
2019-02-27T04:53:42.084Z,6.30
2019-02-27T04:55:43.792Z,6.30
2019-02-27T04:57:45.495Z,6.40
2019-02-27T04:59:49.612Z,6.40
2019-02-27T05:01:50.809Z,6.30
2019-02-27T05:03:52.506Z,6.30
2019-02-27T05:06:14.565Z,6.20
2019-02-27T05:08:16.997Z,6.10
2019-02-27T05:10:18.709Z,6.00
2019-02-27T05:12:20.512Z,6.00
2019-02-27T05:14:24.747Z,6.00
2019-02-27T05:16:25.928Z,6.00
2019-02-27T05:18:29.478Z,6.10
2019-02-27T05:20:31.851Z,6.20
2019-02-27T05:22:33.565Z,6.00
2019-02-27T05:24:35.281Z,6.00
2019-02-27T05:26:37.004Z,5.90
2019-02-27T05:28:38.739Z,5.80
2019-02-27T05:30:44.724Z,5.90
2019-02-27T05:32:44.086Z,5.90
2019-02-27T05:34:49.423Z,5.90
2019-02-27T05:36:49.466Z,5.90
2019-02-27T05:38:51.310Z,5.90
2019-02-27T05:40:53.008Z,6.00
2019-02-27T05:42:54.745Z,6.00
2019-02-27T05:44:56.751Z,6.00
2019-02-27T05:46:58.549Z,6.00
2019-02-27T05:49:00.260Z,6.00
2019-02-27T05:51:01.981Z,6.00
2019-02-27T05:53:04.013Z,6.00
2019-02-27T05:55:07.088Z,6.00
2019-02-27T05:57:08.889Z,6.00
2019-02-27T05:59:10.609Z,6.00
2019-02-27T06:01:12.455Z,5.90
2019-02-27T06:03:15.874Z,5.80
2019-02-27T06:05:17.889Z,5.60
2019-02-27T06:07:19.666Z,5.60
2019-02-27T06:09:22.589Z,5.60
2019-02-27T06:11:24.309Z,5.60
2019-02-27T06:13:26.159Z,5.50
2019-02-27T06:15:28.593Z,5.60
2019-02-27T06:17:31.005Z,5.70
2019-02-27T06:19:33.601Z,5.70
2019-02-27T06:21:36.063Z,5.80
2019-02-27T06:23:38.510Z,5.70
2019-02-27T06:30:34.511Z,5.70
2019-02-27T06:32:36.285Z,5.60
2019-02-27T06:34:37.984Z,5.60
2019-02-27T06:36:42.893Z,5.60
2019-02-27T06:38:43.863Z,5.60
2019-02-27T06:40:45.570Z,5.60
2019-02-27T06:42:47.336Z,5.60
2019-02-27T06:44:49.143Z,5.60
2019-02-27T06:46:51.169Z,5.70
2019-02-27T06:48:56.433Z,5.80
2019-02-27T06:50:58.302Z,5.90
2019-02-27T06:53:01.737Z,6.00
2019-02-27T06:55:04.285Z,6.00
2019-02-27T06:57:07.784Z,6.10
2019-02-27T06:59:09.809Z,6.10
2019-02-27T07:01:13.256Z,6.20
2019-02-27T07:03:15.141Z,6.10
2019-02-27T07:05:17.044Z,6.10
2019-02-27T07:07:18.756Z,6.10
2019-02-27T07:09:20.457Z,6.30
2019-02-27T07:11:22.192Z,6.20
2019-02-27T07:13:26.844Z,6.30
2019-02-27T07:15:27.589Z,6.40
2019-02-27T07:17:31.865Z,6.50
2019-02-27T07:19:33.157Z,6.60
2019-02-27T07:21:34.974Z,6.60
2019-02-27T07:23:36.886Z,6.70
2019-02-27T07:25:42.007Z,6.80
2019-02-27T07:27:42.372Z,7.10
2019-02-27T07:29:44.067Z,7.20
2019-02-27T07:31:45.795Z,7.40
2019-02-27T07:33:47.489Z,7.70
2019-02-27T07:35:49.189Z,7.80
2019-02-27T07:37:50.893Z,8.00
2019-02-27T07:39:52.865Z,8.20
2019-02-27T07:41:54.561Z,8.40
2019-02-27T07:43:57.079Z,8.30
2019-02-27T07:45:58.806Z,8.20
2019-02-27T07:48:00.612Z,8.20
2019-02-27T07:50:02.743Z,8.00
2019-02-27T07:52:06.313Z,7.90
2019-02-27T07:54:08.023Z,7.80
2019-02-27T07:56:09.834Z,7.90
2019-02-27T07:58:11.565Z,8.10
2019-02-27T08:00:15.775Z,8.10
2019-02-27T08:02:17.564Z,8.10
2019-02-27T08:04:22.097Z,8.20
2019-02-27T08:06:23.638Z,8.20
2019-02-27T08:08:25.465Z,8.40
2019-02-27T08:10:27.314Z,8.70
2019-02-27T08:12:29.008Z,8.90
2019-02-27T08:14:30.695Z,9.00
2019-02-27T08:16:32.416Z,9.00
2019-02-27T08:18:37.544Z,9.10
2019-02-27T08:20:37.716Z,9.50
2019-02-27T08:22:39.628Z,9.70
2019-02-27T08:24:41.343Z,10.10
2019-02-27T08:26:43.041Z,10.10
2019-02-27T08:28:45.090Z,10.00
2019-02-27T08:30:46.776Z,9.90
2019-02-27T08:32:48.684Z,9.90
2019-02-27T08:34:53.565Z,9.80
2019-02-27T08:36:55.273Z,9.90
2019-02-27T08:38:56.964Z,10.10
2019-02-27T08:40:58.701Z,10.30
2019-02-27T08:43:00.401Z,10.30
2019-02-27T08:45:02.200Z,10.40
2019-02-27T08:47:04.300Z,10.50
2019-02-27T08:49:06.224Z,10.50
2019-02-27T08:51:08.816Z,10.70
2019-02-27T08:53:10.955Z,10.80
2019-02-27T08:55:19.991Z,10.90
2019-02-27T08:57:16.687Z,11.10
2019-02-27T08:59:18.413Z,11.20
2019-02-27T09:01:21.749Z,11.20
2019-02-27T09:03:23.694Z,11.40
2019-02-27T09:05:25.509Z,11.60
2019-02-27T09:07:27.278Z,11.70
2019-02-27T09:09:29.017Z,11.80
2019-02-27T09:11:30.772Z,11.90
2019-02-27T09:13:32.469Z,12.00
2019-02-27T09:15:34.285Z,12.00
2019-02-27T09:17:36.190Z,12.40
2019-02-27T09:19:38.249Z,12.60
2019-02-27T09:21:39.941Z,12.80
2019-02-27T09:23:41.635Z,12.80
2019-02-27T09:25:43.461Z,12.90
2019-02-27T09:27:45.246Z,13.10
2019-02-27T09:29:46.936Z,13.30
2019-02-27T09:31:50.961Z,13.50
2019-02-27T09:33:53.332Z,13.70
2019-02-27T09:35:55.732Z,14.10
2019-02-27T09:37:57.440Z,14.20
2019-02-27T09:39:59.148Z,14.20
2019-02-27T09:42:00.844Z,14.30
2019-02-27T09:44:02.538Z,14.40
2019-02-27T09:46:04.491Z,14.10
2019-02-27T09:48:06.282Z,14.10
2019-02-27T09:50:08.173Z,14.20
2019-02-27T09:52:09.972Z,14.20
2019-02-27T09:54:13.331Z,14.20
2019-02-27T09:56:15.357Z,14.30
2019-02-27T09:58:17.313Z,14.60
2019-02-27T10:00:29.103Z,14.70
2019-02-27T10:02:30.780Z,14.70
2019-02-27T10:04:32.569Z,14.90
2019-02-27T10:06:34.257Z,15.30
2019-02-27T10:08:36.073Z,15.50
2019-02-27T10:10:37.981Z,15.70
2019-02-27T10:12:39.771Z,16.00
2019-02-27T10:14:41.470Z,15.80
2019-02-27T10:16:43.298Z,15.70
2019-02-27T10:18:45.073Z,15.70
2019-02-27T10:20:46.812Z,15.80
2019-02-27T10:22:48.856Z,16.00
2019-02-27T10:24:50.861Z,16.30
2019-02-27T10:26:53.596Z,16.30
2019-02-27T10:28:55.855Z,16.80
2019-02-27T10:30:57.722Z,16.90
2019-02-27T10:32:59.443Z,16.80
2019-02-27T10:35:01.121Z,16.90
2019-02-27T10:37:03.105Z,17.00
2019-02-27T10:39:05.449Z,16.90
2019-02-27T10:41:07.236Z,16.90
2019-02-27T10:43:08.937Z,17.00
2019-02-27T10:45:10.894Z,17.10
2019-02-27T10:47:13.623Z,17.20
2019-02-27T10:49:15.425Z,17.10
2019-02-27T10:51:17.557Z,17.20
2019-02-27T10:53:19.254Z,17.30
2019-02-27T10:55:21.448Z,17.60
2019-02-27T10:57:23.121Z,17.90
2019-02-27T10:59:24.834Z,18.00
2019-02-27T11:01:26.554Z,18.40
2019-02-27T11:03:28.241Z,18.50
2019-02-27T11:05:30.804Z,18.80
2019-02-27T11:07:32.664Z,19.10
2019-02-27T11:09:34.430Z,19.20
2019-02-27T11:11:36.130Z,19.20
2019-02-27T11:18:31.446Z,18.80
2019-02-27T11:20:33.137Z,18.70
2019-02-27T11:22:34.844Z,18.70
2019-02-27T11:24:36.959Z,19.00
2019-02-27T11:26:38.845Z,19.20
2019-02-27T11:28:42.420Z,19.20
2019-02-27T11:30:44.357Z,19.20
2019-02-27T11:32:46.042Z,19.40
2019-02-27T11:34:48.457Z,19.40
2019-02-27T11:36:51.129Z,19.50
2019-02-27T11:38:52.825Z,19.60
2019-02-27T11:40:54.504Z,19.40
2019-02-27T11:42:56.488Z,19.50
2019-02-27T11:44:58.453Z,19.80
2019-02-27T11:47:00.149Z,20.10
2019-02-27T11:49:03.410Z,20.30
2019-02-27T11:51:05.238Z,20.70
2019-02-27T11:53:07.220Z,20.80
2019-02-27T11:55:10.297Z,21.10
2019-02-27T11:57:12.121Z,21.70
2019-02-27T11:59:13.813Z,22.20
2019-02-27T12:01:15.632Z,22.50
2019-02-27T12:03:17.424Z,22.00
2019-02-27T12:05:19.240Z,22.40
2019-02-27T12:07:20.937Z,22.80
2019-02-27T12:09:23.125Z,23.10
2019-02-27T12:11:24.938Z,23.20
2019-02-27T12:13:26.628Z,23.60
2019-02-27T12:15:28.413Z,24.00
2019-02-27T12:17:30.163Z,23.20
2019-02-27T12:19:31.949Z,22.90
2019-02-27T12:21:33.640Z,22.80
2019-02-27T12:23:35.441Z,22.70
2019-02-27T12:25:37.426Z,22.50
2019-02-27T12:27:49.037Z,22.10
2019-02-27T12:29:43.048Z,21.70
2019-02-27T12:31:48.076Z,22.00
2019-02-27T12:33:48.725Z,22.30
2019-02-27T12:35:50.518Z,22.10
2019-02-27T12:37:52.220Z,22.20
2019-02-27T12:39:53.905Z,22.60
2019-02-27T12:41:55.614Z,22.60
2019-02-27T12:43:57.306Z,23.20
2019-02-27T12:46:00.985Z,23.50
2019-02-27T12:48:02.740Z,23.30
2019-02-27T12:50:05.325Z,23.20
2019-02-27T12:52:09.018Z,23.00
2019-02-27T12:54:10.704Z,23.70
2019-02-27T12:56:12.397Z,24.50
2019-02-27T12:58:14.086Z,23.90
2019-02-27T13:00:18.207Z,23.10
2019-02-27T13:02:25.885Z,22.80
2019-02-27T13:04:23.471Z,22.80
2019-02-27T13:06:25.585Z,23.20
2019-02-27T13:08:27.270Z,23.30
2019-02-27T13:10:33.155Z,23.80
2019-02-27T13:12:32.697Z,23.80
2019-02-27T13:14:34.387Z,24.10
2019-02-27T13:16:36.173Z,24.00
2019-02-27T13:18:37.893Z,24.00
2019-02-27T13:20:39.577Z,24.70
2019-02-27T13:22:41.392Z,24.90
2019-02-27T13:24:43.120Z,24.10
2019-02-27T13:26:44.801Z,24.50
2019-02-27T13:28:48.762Z,24.30
2019-02-27T13:30:50.385Z,23.40
2019-02-27T13:32:52.208Z,23.70
2019-02-27T13:34:53.918Z,24.00
2019-02-27T13:36:55.617Z,23.90
2019-02-27T13:38:59.323Z,24.20
2019-02-27T13:41:02.528Z,24.20
2019-02-27T13:43:04.465Z,25.30
2019-02-27T13:45:12.642Z,25.90
2019-02-27T13:47:12.354Z,25.90
2019-02-27T13:49:14.653Z,26.40
2019-02-27T13:51:16.485Z,27.20
2019-02-27T13:53:18.185Z,27.00
2019-02-27T13:55:20.112Z,26.10
2019-02-27T13:57:24.835Z,25.50
2019-02-27T13:59:25.513Z,26.00
2019-02-27T14:01:28.482Z,26.90
2019-02-27T14:03:31.050Z,26.80
2019-02-27T14:05:36.054Z,26.30
2019-02-27T14:07:36.540Z,26.10
2019-02-27T14:09:39.128Z,25.30
2019-02-27T14:11:42.005Z,24.90
2019-02-27T14:13:44.867Z,25.00
2019-02-27T14:15:46.841Z,25.00
2019-02-27T14:17:48.622Z,24.80
2019-02-27T14:19:50.428Z,25.20
2019-02-27T14:21:52.141Z,26.00
2019-02-27T14:23:53.822Z,26.10
2019-02-27T14:25:55.537Z,25.80
2019-02-27T14:27:57.325Z,26.30
2019-02-27T14:30:03.311Z,26.40
2019-02-27T14:32:02.720Z,26.00
2019-02-27T14:34:04.449Z,25.70
2019-02-27T14:36:08.493Z,25.40
2019-02-27T14:38:10.209Z,25.10
2019-02-27T14:40:13.614Z,25.00
2019-02-27T14:42:15.311Z,24.70
2019-02-27T14:44:17.016Z,24.70
2019-02-27T14:46:18.928Z,25.00
2019-02-27T14:48:21.502Z,25.40
2019-02-27T14:50:24.529Z,26.30
2019-02-27T14:52:26.217Z,26.30
2019-02-27T14:54:29.174Z,25.80
2019-02-27T14:56:31.604Z,25.20
2019-02-27T14:58:33.333Z,24.80
2019-02-27T15:00:39.659Z,24.30
2019-02-27T15:02:39.341Z,23.90
2019-02-27T15:04:41.134Z,23.70
2019-02-27T15:06:42.834Z,23.50
2019-02-27T15:08:44.641Z,23.20
2019-02-27T15:10:46.436Z,23.30
2019-02-27T15:12:48.136Z,23.60
2019-02-27T15:14:49.851Z,23.60
2019-02-27T15:16:51.537Z,23.70
2019-02-27T15:18:55.815Z,23.90
2019-02-27T15:20:56.857Z,23.30
2019-02-27T15:22:58.793Z,23.10
2019-02-27T15:25:00.490Z,23.40
2019-02-27T15:27:02.288Z,23.50
2019-02-27T15:29:05.683Z,23.70
2019-02-27T15:31:07.626Z,24.00
2019-02-27T15:33:09.343Z,24.10
2019-02-27T15:35:12.145Z,24.40
2019-02-27T15:37:13.840Z,24.00
2019-02-27T15:39:20.287Z,23.50
2019-02-27T15:41:19.342Z,23.30
2019-02-27T15:43:21.158Z,23.20
2019-02-27T15:45:23.099Z,22.80
2019-02-27T15:47:27.060Z,22.70
2019-02-27T15:49:28.373Z,22.70
2019-02-27T15:51:32.341Z,22.50
2019-02-27T15:53:33.952Z,22.20
2019-02-27T15:55:37.808Z,22.10
2019-02-27T15:57:39.728Z,22.60
2019-02-27T15:59:41.923Z,22.60
2019-02-27T16:01:43.901Z,22.00
2019-02-27T16:03:46.638Z,21.20
2019-02-27T16:05:48.514Z,20.60
2019-02-27T16:07:50.807Z,20.40
2019-02-27T16:09:52.745Z,20.80
2019-02-27T16:11:54.437Z,21.00
2019-02-27T16:13:56.372Z,21.10
2019-02-27T16:15:58.086Z,21.30
2019-02-27T16:18:04.377Z,21.10
2019-02-27T16:20:05.589Z,20.70
2019-02-27T16:22:07.581Z,20.60
2019-02-27T16:24:09.662Z,20.50
2019-02-27T16:26:11.970Z,20.30
2019-02-27T16:28:16.356Z,19.70
2019-02-27T16:30:22.201Z,19.10
2019-02-27T16:32:23.879Z,18.80
2019-02-27T16:34:25.608Z,18.50
2019-02-27T16:36:36.048Z,18.30
2019-02-27T16:38:31.605Z,18.10
2019-02-27T16:40:34.971Z,18.00
2019-02-27T16:42:39.092Z,17.80
2019-02-27T16:44:40.613Z,17.70
2019-02-27T16:46:44.712Z,17.60
2019-02-27T16:48:46.005Z,17.40
2019-02-27T16:50:48.308Z,17.20
2019-02-27T16:52:50.277Z,17.00
2019-02-27T16:54:51.968Z,16.90
2019-02-27T16:56:53.681Z,16.70
2019-02-27T16:58:55.665Z,16.60
2019-02-27T17:00:57.452Z,16.50
2019-02-27T17:02:59.245Z,16.50
2019-02-27T17:05:01.041Z,16.50
2019-02-27T17:07:02.929Z,16.40
2019-02-27T17:09:09.613Z,16.30
2019-02-27T17:11:08.688Z,16.20
2019-02-27T17:13:14.553Z,16.00
2019-02-27T17:15:14.299Z,16.00
2019-02-27T17:17:16.178Z,15.90
2019-02-27T17:19:19.643Z,15.90
2019-02-27T17:21:22.684Z,15.80
2019-02-27T17:23:25.303Z,15.70
2019-02-27T17:25:29.947Z,15.70
2019-02-27T17:27:30.871Z,15.60
2019-02-27T17:29:32.589Z,15.50
2019-02-27T17:31:35.533Z,15.50
2019-02-27T17:33:38.003Z,15.40
2019-02-27T17:35:40.411Z,15.40
2019-02-27T17:37:42.257Z,15.20
2019-02-27T17:39:45.431Z,15.20
2019-02-27T17:41:47.244Z,15.10
2019-02-27T17:43:51.592Z,15.10
2019-02-27T17:45:54.470Z,15.00
2019-02-27T17:47:56.318Z,14.90
2019-02-27T17:49:58.262Z,14.90
2019-02-27T17:52:00.275Z,14.80
2019-02-27T17:54:02.079Z,14.80
2019-02-27T17:56:03.889Z,14.70
2019-02-27T17:58:05.604Z,14.70
2019-02-27T18:00:16.813Z,14.70
2019-02-27T18:02:18.568Z,14.60
2019-02-27T18:04:20.394Z,14.50
2019-02-27T18:06:22.379Z,14.50
2019-02-27T18:08:24.074Z,14.40
2019-02-27T18:10:25.794Z,14.40
2019-02-27T18:12:27.633Z,14.40
2019-02-27T18:14:29.522Z,14.30
2019-02-27T18:16:31.344Z,14.30
2019-02-27T18:18:33.148Z,14.30
2019-02-27T18:20:35.057Z,14.30
2019-02-27T18:22:36.765Z,14.20
2019-02-27T18:24:38.562Z,14.20
2019-02-27T18:26:40.275Z,14.10
2019-02-27T18:28:42.009Z,14.10
2019-02-27T18:30:43.840Z,14.10
2019-02-27T18:32:45.625Z,14.00
2019-02-27T18:34:47.668Z,14.00
2019-02-27T18:36:51.197Z,14.00
2019-02-27T18:38:53.214Z,14.00
2019-02-27T18:40:54.952Z,13.90
2019-02-27T18:42:57.240Z,13.90
2019-02-27T18:44:58.961Z,13.90
2019-02-27T18:47:02.401Z,13.90
2019-02-27T18:49:04.477Z,13.80
2019-02-27T18:51:06.172Z,13.80
2019-02-27T18:53:12.946Z,13.80
2019-02-27T18:55:12.153Z,13.70
2019-02-27T18:57:13.937Z,13.70
2019-02-27T18:59:15.649Z,13.60
2019-02-27T19:01:17.781Z,13.60
2019-02-27T19:03:19.580Z,13.60
2019-02-27T19:05:21.681Z,13.60
2019-02-27T19:07:23.470Z,13.50
2019-02-27T19:09:25.176Z,13.50
2019-02-27T19:11:27.305Z,13.50
2019-02-27T19:13:31.707Z,13.40
2019-02-27T19:15:32.952Z,13.40
2019-02-27T19:17:34.933Z,13.40
2019-02-27T19:19:36.935Z,13.40
2019-02-27T19:21:38.740Z,13.40
2019-02-27T19:23:41.019Z,13.30
2019-02-27T19:26:02.509Z,13.30
2019-02-27T19:28:04.814Z,13.30
2019-02-27T19:30:08.846Z,13.30
2019-02-27T19:32:11.476Z,13.20
2019-02-27T19:34:13.290Z,13.20
2019-02-27T19:36:19.110Z,13.10
2019-02-27T19:38:18.688Z,13.10
2019-02-27T19:40:21.005Z,13.10
2019-02-27T19:42:22.940Z,13.10
2019-02-27T19:44:28.552Z,13.00
2019-02-27T19:46:28.656Z,12.80
2019-02-27T19:48:30.388Z,12.90
2019-02-27T19:50:32.209Z,12.80
2019-02-27T19:52:34.016Z,12.80
2019-02-27T19:54:55.357Z,12.80
2019-02-27T19:56:57.168Z,12.70
2019-02-27T19:58:59.201Z,12.70
2019-02-27T20:01:00.916Z,12.60
2019-02-27T20:03:02.829Z,12.50
2019-02-27T20:05:05.637Z,12.40
2019-02-27T20:07:07.520Z,12.40
2019-02-27T20:09:09.428Z,12.40
2019-02-27T20:11:11.337Z,12.40
2019-02-27T20:13:13.381Z,12.30
2019-02-27T20:15:15.605Z,12.30
2019-02-27T20:17:17.309Z,12.20
2019-02-27T20:19:22.275Z,12.20
2019-02-27T20:21:23.147Z,12.10
2019-02-27T20:23:25.759Z,12.00
2019-02-27T20:25:28.846Z,12.00
2019-02-27T20:27:30.729Z,11.90
2019-02-27T20:29:32.607Z,11.90
2019-02-27T20:31:34.574Z,11.80
2019-02-27T20:33:37.328Z,11.80
2019-02-27T20:35:39.892Z,11.80
2019-02-27T20:37:41.818Z,11.80
2019-02-27T20:39:43.614Z,11.70
2019-02-27T20:41:45.447Z,11.70
2019-02-27T20:43:47.256Z,11.60
2019-02-27T20:45:49.133Z,11.60
2019-02-27T20:47:51.081Z,11.60
2019-02-27T20:49:52.957Z,11.60
2019-02-27T20:51:54.740Z,11.60
2019-02-27T20:53:56.591Z,11.60
2019-02-27T20:55:58.666Z,11.60
2019-02-27T20:58:00.497Z,11.60
2019-02-27T21:00:02.916Z,11.60
2019-02-27T21:02:04.733Z,11.50
2019-02-27T21:04:06.567Z,11.50
2019-02-27T21:06:08.300Z,11.50
2019-02-27T21:08:10.005Z,11.40
2019-02-27T21:10:19.921Z,11.40
2019-02-27T21:12:17.934Z,11.30
2019-02-27T21:14:20.536Z,11.30
2019-02-27T21:16:23.521Z,11.30
2019-02-27T21:18:25.409Z,11.30
2019-02-27T21:20:27.392Z,11.20
2019-02-27T21:22:29.114Z,11.10
2019-02-27T21:24:30.912Z,11.10
2019-02-27T21:26:32.726Z,11.10
2019-02-27T21:28:34.424Z,11.10
2019-02-27T21:30:36.239Z,11.10
2019-02-27T21:32:38.073Z,11.10
2019-02-27T21:34:39.889Z,11.10
2019-02-27T21:36:41.722Z,11.10
2019-02-27T21:38:43.492Z,11.10
2019-02-27T21:40:45.215Z,11.00
2019-02-27T21:42:47.000Z,11.00
2019-02-27T21:44:48.712Z,11.00
2019-02-27T21:46:50.479Z,11.00
2019-02-27T21:48:52.220Z,11.00
2019-02-27T21:50:53.944Z,10.90
2019-02-27T21:52:55.914Z,11.00
2019-02-27T21:54:58.053Z,11.00
2019-02-27T21:56:59.934Z,11.00
2019-02-27T21:59:04.757Z,11.00
2019-02-27T22:01:05.442Z,11.00
2019-02-27T22:03:07.285Z,11.10
2019-02-27T22:05:09.285Z,11.10
2019-02-27T22:07:11.005Z,11.00
2019-02-27T22:09:13.616Z,11.00
2019-02-27T22:11:16.254Z,10.90
2019-02-27T22:13:28.620Z,10.90
2019-02-27T22:15:23.928Z,10.80
2019-02-27T22:17:25.634Z,10.80
2019-02-27T22:19:27.331Z,10.70
2019-02-27T22:21:31.351Z,10.70
2019-02-27T22:23:32.766Z,10.60
2019-02-27T22:25:34.477Z,10.50
2019-02-27T22:27:36.196Z,10.50
2019-02-27T22:29:37.892Z,10.40
2019-02-27T22:31:40.601Z,10.30
2019-02-27T22:33:43.397Z,10.30
2019-02-27T22:35:45.090Z,10.30
2019-02-27T22:37:51.082Z,10.30
2019-02-27T22:39:50.794Z,10.30
2019-02-27T22:41:52.490Z,10.30
2019-02-27T22:43:55.722Z,10.30
2019-02-27T22:45:57.937Z,10.10
2019-02-27T22:47:59.640Z,10.20
2019-02-27T22:50:05.863Z,10.10
2019-02-27T22:52:05.111Z,10.10
2019-02-27T22:54:06.905Z,10.00
2019-02-27T22:56:08.612Z,10.00
2019-02-27T22:58:10.516Z,10.00
2019-02-27T23:00:28.717Z,10.00
2019-02-27T23:02:30.693Z,10.00
2019-02-27T23:04:33.196Z,9.90
2019-02-27T23:06:35.092Z,9.90
2019-02-27T23:08:37.005Z,9.90
2019-02-27T23:10:38.842Z,9.90
2019-02-27T23:12:40.548Z,9.90
2019-02-27T23:14:45.077Z,9.90
2019-02-27T23:16:47.229Z,9.90
2019-02-27T23:18:49.033Z,9.90
2019-02-27T23:20:52.476Z,9.90
2019-02-27T23:22:54.451Z,9.80
2019-02-27T23:25:05.180Z,9.80
2019-02-27T23:27:06.873Z,9.70
2019-02-27T23:29:08.969Z,9.70
2019-02-27T23:31:10.683Z,9.70
2019-02-27T23:33:12.601Z,9.70
2019-02-27T23:35:16.739Z,9.60
2019-02-27T23:37:17.916Z,9.50
2019-02-27T23:39:19.838Z,9.50
2019-02-27T23:41:23.213Z,9.40
2019-02-27T23:43:25.372Z,9.40
2019-02-27T23:45:27.096Z,9.30
2019-02-27T23:47:29.348Z,9.30
2019-02-27T23:49:31.105Z,9.30
2019-02-27T23:51:33.020Z,9.20
2019-02-27T23:53:34.813Z,9.20
2019-02-27T23:55:36.709Z,9.10
2019-02-27T23:57:38.416Z,9.00
2019-02-27T23:59:40.271Z,9.00
